createdAt,value
2022-08-12T00:02:03.304Z,25.30
2022-08-12T00:06:00.347Z,25.10
2022-08-12T00:09:41.517Z,25.00
2022-08-12T00:13:23.662Z,24.90
2022-08-12T00:17:07.265Z,24.80
2022-08-12T00:20:49.122Z,24.70
2022-08-12T00:24:30.404Z,24.60
2022-08-12T00:28:11.851Z,24.60
2022-08-12T00:31:53.083Z,24.50
2022-08-12T00:35:36.718Z,24.40
2022-08-12T00:39:18.269Z,24.40
2022-08-12T00:42:42.581Z,24.30
2022-08-12T00:46:24.007Z,24.30
2022-08-12T00:49:50.127Z,24.20
2022-08-12T00:53:16.314Z,24.20
2022-08-12T00:56:43.741Z,24.20
2022-08-12T01:00:12.325Z,24.10
2022-08-12T01:04:11.289Z,24.10
2022-08-12T01:07:55.682Z,24.10
2022-08-12T01:11:31.389Z,24.00
2022-08-12T01:14:57.915Z,24.00
2022-08-12T01:18:23.346Z,24.00
2022-08-12T01:22:23.556Z,24.00
2022-08-12T01:25:56.318Z,24.00
2022-08-12T01:29:28.679Z,24.00
2022-08-12T01:33:00.762Z,24.00
2022-08-12T01:36:29.251Z,23.90
2022-08-12T01:40:36.001Z,23.90
2022-08-12T01:43:44.415Z,23.90
2022-08-12T01:47:33.118Z,23.80
2022-08-12T01:51:06.696Z,23.70
2022-08-12T01:54:38.639Z,23.70
2022-08-12T01:58:50.839Z,23.70
2022-08-12T02:02:20.022Z,23.60
2022-08-12T02:06:17.374Z,23.60
2022-08-12T02:10:49.913Z,23.50
2022-08-12T02:14:42.541Z,23.40
2022-08-12T02:18:25.964Z,23.30
2022-08-12T02:22:02.777Z,23.30
2022-08-12T02:25:38.267Z,24.10
2022-08-12T02:29:03.227Z,23.10
2022-08-12T02:32:27.669Z,23.10
2022-08-12T02:35:53.434Z,23.00
2022-08-12T02:39:20.349Z,23.00
2022-08-12T02:42:53.846Z,23.00
2022-08-12T02:46:24.921Z,23.00
2022-08-12T02:49:55.708Z,23.00
2022-08-12T02:53:21.192Z,22.90
2022-08-12T02:56:50.286Z,23.00
2022-08-12T03:00:18.394Z,22.90
2022-08-12T03:03:42.867Z,22.90
2022-08-12T03:07:16.571Z,22.90
2022-08-12T03:10:46.990Z,22.80
2022-08-12T03:14:17.530Z,22.80
2022-08-12T03:18:25.961Z,22.70
2022-08-12T03:21:56.438Z,22.70
2022-08-12T03:25:27.275Z,22.70
2022-08-12T03:28:57.042Z,22.60
2022-08-12T03:32:36.371Z,22.60
2022-08-12T03:36:04.744Z,22.50
2022-08-12T03:39:40.748Z,22.50
2022-08-12T03:43:25.532Z,22.40
2022-08-12T03:47:19.477Z,22.40
2022-08-12T03:51:00.690Z,22.30
2022-08-12T03:54:42.770Z,22.30
2022-08-12T03:58:24.914Z,22.20
2022-08-12T04:01:52.511Z,22.20
2022-08-12T04:05:21.676Z,22.10
2022-08-12T04:08:49.681Z,22.10
2022-08-12T04:12:33.230Z,22.00
2022-08-12T04:15:58.580Z,22.00
2022-08-12T04:19:25.990Z,21.90
2022-08-12T04:22:51.118Z,21.90
2022-08-12T04:26:14.586Z,21.90
2022-08-12T04:30:30.892Z,21.80
2022-08-12T04:33:23.613Z,21.80
2022-08-12T04:36:48.369Z,21.80
2022-08-12T04:40:14.349Z,21.80
2022-08-12T04:43:54.536Z,21.90
2022-08-12T04:47:22.579Z,21.90
2022-08-12T04:50:46.952Z,21.90
2022-08-12T04:54:11.779Z,22.00
2022-08-12T04:57:35.249Z,22.30
2022-08-12T05:00:58.809Z,22.70
2022-08-12T05:04:25.536Z,23.20
2022-08-12T05:07:54.697Z,23.80
2022-08-12T05:11:24.800Z,24.40
2022-08-12T05:14:48.303Z,25.00
2022-08-12T05:18:19.490Z,25.50
2022-08-12T05:21:47.187Z,26.20
2022-08-12T05:25:11.958Z,26.80
2022-08-12T05:28:36.993Z,27.40
2022-08-12T05:32:00.581Z,27.90
2022-08-12T05:35:24.397Z,28.30
2022-08-12T05:38:57.242Z,28.70
2022-08-12T05:42:22.459Z,29.00
2022-08-12T05:45:59.134Z,29.50
2022-08-12T05:49:22.614Z,29.80
2022-08-12T05:52:46.076Z,30.30
2022-08-12T05:56:22.110Z,30.90
2022-08-12T05:59:45.739Z,31.50
2022-08-12T06:03:11.020Z,32.00
2022-08-12T06:06:41.323Z,32.50
2022-08-12T06:10:05.422Z,33.00
2022-08-12T06:13:53.860Z,33.40
2022-08-12T06:17:12.752Z,33.90
2022-08-12T06:20:38.899Z,34.30
2022-08-12T06:24:05.777Z,34.70
2022-08-12T06:27:29.354Z,35.10
2022-08-12T06:35:24.896Z,35.80
2022-08-12T06:38:26.141Z,36.20
2022-08-12T06:42:31.700Z,36.60
2022-08-12T06:45:50.820Z,36.90
2022-08-12T06:49:14.666Z,37.20
2022-08-12T06:52:41.460Z,37.50
2022-08-12T06:56:10.615Z,37.80
2022-08-12T06:59:38.786Z,38.00
2022-08-12T07:03:22.882Z,38.30
2022-08-12T07:06:46.967Z,38.60
2022-08-12T07:10:10.968Z,39.00
2022-08-12T07:14:12.010Z,39.20
2022-08-12T07:17:35.638Z,39.50
2022-08-12T07:21:01.268Z,39.50
2022-08-12T07:24:24.740Z,39.60
2022-08-12T07:27:49.985Z,39.70
2022-08-12T07:31:17.257Z,39.90
2022-08-12T07:34:43.300Z,40.10
2022-08-12T07:38:29.038Z,40.30
2022-08-12T07:41:53.619Z,40.50
2022-08-12T07:45:18.015Z,40.70
2022-08-12T07:48:46.452Z,40.90
2022-08-12T07:52:09.951Z,41.10
2022-08-12T07:55:33.696Z,40.80
2022-08-12T07:58:59.397Z,41.40
2022-08-12T08:02:26.439Z,41.70
2022-08-12T08:05:51.962Z,41.80
2022-08-12T08:09:19.070Z,41.90
2022-08-12T08:12:54.803Z,42.00
2022-08-12T08:16:18.302Z,42.20
2022-08-12T08:20:03.128Z,42.40
2022-08-12T08:23:56.473Z,42.60
2022-08-12T08:27:22.214Z,42.80
2022-08-12T08:30:50.538Z,43.00
2022-08-12T08:34:33.630Z,43.20
2022-08-12T08:38:10.183Z,43.30
2022-08-12T08:42:16.294Z,43.40
2022-08-12T08:45:39.567Z,43.60
2022-08-12T08:49:03.650Z,43.80
2022-08-12T08:52:40.099Z,44.00
2022-08-12T08:56:05.559Z,44.00
2022-08-12T08:59:30.812Z,44.10
2022-08-12T09:02:59.450Z,44.10
2022-08-12T09:06:31.590Z,44.10
2022-08-12T09:10:04.138Z,44.00
2022-08-12T09:14:10.654Z,43.70
2022-08-12T09:17:21.469Z,43.40
2022-08-12T09:20:50.895Z,43.10
2022-08-12T09:24:19.015Z,42.90
2022-08-12T09:28:03.457Z,42.80
2022-08-12T09:32:06.639Z,42.70
2022-08-12T09:35:18.505Z,42.60
2022-08-12T09:38:59.002Z,42.60
2022-08-12T09:42:57.697Z,42.40
2022-08-12T09:46:26.095Z,40.80
2022-08-12T09:49:57.927Z,42.00
2022-08-12T09:53:36.028Z,41.90
2022-08-12T09:58:45.828Z,42.00
2022-08-12T10:00:52.793Z,42.10
2022-08-12T10:04:19.841Z,42.20
2022-08-12T10:07:43.942Z,42.30
2022-08-12T10:11:27.328Z,42.40
2022-08-12T10:14:55.221Z,42.40
2022-08-12T10:18:19.487Z,42.50
2022-08-12T10:21:44.979Z,42.50
2022-08-12T10:26:35.409Z,42.60
2022-08-12T10:30:11.907Z,42.60
2022-08-12T10:33:18.041Z,42.60
2022-08-12T10:36:44.435Z,42.70
2022-08-12T10:40:18.950Z,42.80
2022-08-12T10:43:55.713Z,42.90
2022-08-12T10:47:26.268Z,42.70
2022-08-12T10:52:04.803Z,42.30
2022-08-12T10:54:50.921Z,41.80
2022-08-12T10:58:31.581Z,41.60
2022-08-12T11:04:18.337Z,41.50
2022-08-12T11:07:06.816Z,41.50
2022-08-12T11:09:56.554Z,41.40
2022-08-12T11:13:14.612Z,41.20
2022-08-12T11:16:38.254Z,41.00
2022-08-12T11:20:02.054Z,41.00
2022-08-12T11:23:36.199Z,41.00
2022-08-12T11:27:08.040Z,41.10
2022-08-12T11:30:35.168Z,41.40
2022-08-12T11:34:06.191Z,41.70
2022-08-12T11:37:59.433Z,41.90
2022-08-12T11:41:31.808Z,42.00
2022-08-12T11:44:56.390Z,42.20
2022-08-12T11:48:19.902Z,42.20
2022-08-12T11:51:57.829Z,42.00
2022-08-12T11:55:23.158Z,41.70
2022-08-12T12:02:32.525Z,41.40
2022-08-12T12:05:56.182Z,41.40
2022-08-12T12:09:24.534Z,41.30
2022-08-12T12:12:49.423Z,41.10
2022-08-12T12:16:15.184Z,40.90
2022-08-12T12:19:39.854Z,40.80
2022-08-12T12:23:28.672Z,40.70
2022-08-12T12:26:59.582Z,40.80
2022-08-12T12:30:29.865Z,40.80
2022-08-12T12:33:57.933Z,40.60
2022-08-12T12:38:04.553Z,40.40
2022-08-12T12:41:16.261Z,40.30
2022-08-12T12:44:50.738Z,40.30
2022-08-12T12:48:17.245Z,40.30
2022-08-12T12:51:48.785Z,40.10
2022-08-12T12:55:16.175Z,39.80
2022-08-12T12:58:43.470Z,39.40
2022-08-12T13:02:08.626Z,39.00
2022-08-12T13:05:42.150Z,38.90
2022-08-12T13:09:12.794Z,38.80
2022-08-12T13:12:37.454Z,38.70
2022-08-12T13:16:02.958Z,38.50
2022-08-12T13:19:37.583Z,38.20
2022-08-12T13:23:02.623Z,37.90
2022-08-12T13:26:47.463Z,37.80
2022-08-12T13:30:15.391Z,37.80
2022-08-12T13:34:33.479Z,37.80
2022-08-12T13:37:26.594Z,37.70
2022-08-12T13:40:50.375Z,37.50
2022-08-12T13:44:15.734Z,37.20
2022-08-12T13:47:56.913Z,36.80
2022-08-12T13:51:24.062Z,36.50
2022-08-12T13:54:55.886Z,36.30
2022-08-12T13:58:22.976Z,36.00
2022-08-12T14:01:54.343Z,35.80
2022-08-12T14:05:31.209Z,35.60
2022-08-12T14:09:14.409Z,35.40
2022-08-12T14:12:54.764Z,35.10
2022-08-12T14:16:38.213Z,35.00
2022-08-12T14:20:14.455Z,34.70
2022-08-12T14:24:04.049Z,34.60
2022-08-12T14:28:03.379Z,34.50
2022-08-12T14:31:18.698Z,34.40
2022-08-12T14:34:44.079Z,34.30
2022-08-12T14:38:25.792Z,34.20
2022-08-12T14:41:57.189Z,34.20
2022-08-12T14:45:22.947Z,34.10
2022-08-12T14:48:50.950Z,34.00
2022-08-12T14:53:03.409Z,34.00
2022-08-12T15:00:00.950Z,34.00
2022-08-12T15:03:52.402Z,33.90
2022-08-12T15:07:34.035Z,33.80
2022-08-12T15:11:02.821Z,33.80
2022-08-12T15:14:27.474Z,33.60
2022-08-12T15:18:02.416Z,33.50
2022-08-12T15:21:26.131Z,33.30
2022-08-12T15:25:11.118Z,33.20
2022-08-12T15:28:54.154Z,33.10
2022-08-12T15:32:17.945Z,32.90
2022-08-12T15:35:55.744Z,32.70
2022-08-12T15:39:19.287Z,32.60
2022-08-12T15:42:50.806Z,32.40
2022-08-12T15:46:16.287Z,32.40
2022-08-12T15:49:54.727Z,32.40
2022-08-12T15:53:37.796Z,32.40
2022-08-12T15:57:03.215Z,32.50
2022-08-12T16:00:32.778Z,32.60
2022-08-12T16:04:00.749Z,32.60
2022-08-12T16:07:29.881Z,32.70
2022-08-12T16:10:56.287Z,32.70
2022-08-12T16:14:20.284Z,32.60
2022-08-12T16:18:19.216Z,32.60
2022-08-12T16:21:52.880Z,32.50
2022-08-12T16:25:22.733Z,32.30
2022-08-12T16:28:47.752Z,32.20
2022-08-12T16:32:12.132Z,32.00
2022-08-12T16:35:40.456Z,31.80
2022-08-12T16:39:08.234Z,31.70
2022-08-12T16:42:35.462Z,31.60
2022-08-12T16:46:05.455Z,31.40
2022-08-12T16:49:46.871Z,31.30
2022-08-12T16:53:13.325Z,31.10
2022-08-12T16:56:38.209Z,31.00
2022-08-12T17:00:02.415Z,31.00
2022-08-12T17:03:29.166Z,30.90
2022-08-12T17:06:54.192Z,30.90
2022-08-12T17:10:36.491Z,30.80
2022-08-12T17:14:02.159Z,30.80
2022-08-12T17:17:39.152Z,30.80
2022-08-12T17:21:07.453Z,30.80
2022-08-12T17:24:33.408Z,30.80
2022-08-12T17:27:58.962Z,30.70
2022-08-12T17:32:00.695Z,30.70
2022-08-12T17:35:37.423Z,30.70
2022-08-12T17:39:02.474Z,30.70
2022-08-12T17:42:32.615Z,30.60
2022-08-12T17:45:59.810Z,30.50
2022-08-12T17:50:03.164Z,30.50
2022-08-12T17:53:10.908Z,30.40
2022-08-12T17:56:37.849Z,30.30
2022-08-12T18:00:03.479Z,30.30
2022-08-12T18:04:04.884Z,30.20
2022-08-12T18:07:17.536Z,30.10
2022-08-12T18:11:11.486Z,30.00
2022-08-12T18:14:38.061Z,30.00
2022-08-12T18:18:17.216Z,29.90
2022-08-12T18:22:02.486Z,29.90
2022-08-12T18:26:13.920Z,29.80
2022-08-12T18:29:42.950Z,29.70
2022-08-12T18:33:07.125Z,29.60
2022-08-12T18:36:36.661Z,29.50
2022-08-12T18:40:18.524Z,29.50
2022-08-12T18:43:58.706Z,29.40
2022-08-12T18:47:24.553Z,29.30
2022-08-12T18:51:11.137Z,29.20
2022-08-12T18:54:49.733Z,29.10
2022-08-12T18:58:20.597Z,29.00
2022-08-12T19:02:20.673Z,28.90
2022-08-12T19:05:52.671Z,28.80
2022-08-12T19:09:19.443Z,28.70
2022-08-12T19:13:03.580Z,28.60
2022-08-12T19:16:37.037Z,28.50
2022-08-12T19:20:04.582Z,28.40
2022-08-12T19:23:35.039Z,28.30
2022-08-12T19:27:02.512Z,28.20
2022-08-12T19:30:52.545Z,28.10
2022-08-12T19:38:07.037Z,28.00
2022-08-12T19:41:34.563Z,27.90
2022-08-12T19:45:12.154Z,27.80
2022-08-12T19:48:35.968Z,27.80
2022-08-12T19:51:59.391Z,27.80
2022-08-12T19:55:27.488Z,27.70
2022-08-12T19:58:51.175Z,27.70
2022-08-12T20:02:19.486Z,27.60
2022-08-12T20:06:05.632Z,27.60
2022-08-12T20:09:38.725Z,27.50
2022-08-12T20:13:18.200Z,27.50
2022-08-12T20:16:52.020Z,27.50
2022-08-12T20:20:21.088Z,27.50
2022-08-12T20:24:00.468Z,27.40
2022-08-12T20:27:29.483Z,27.40
2022-08-12T20:31:11.829Z,27.30
2022-08-12T20:34:38.968Z,27.20
2022-08-12T20:38:06.290Z,27.20
2022-08-12T20:41:33.276Z,27.10
2022-08-12T20:44:57.100Z,27.00
2022-08-12T20:48:24.122Z,27.00
2022-08-12T20:51:55.542Z,26.90
2022-08-12T20:55:20.037Z,26.90
2022-08-12T20:58:44.152Z,26.80
2022-08-12T21:02:10.077Z,26.80
2022-08-12T21:06:11.747Z,26.70
2022-08-12T21:09:41.435Z,26.70
2022-08-12T21:13:20.405Z,26.70
2022-08-12T21:16:45.027Z,26.60
2022-08-12T21:20:22.396Z,26.60
2022-08-12T21:23:47.720Z,26.60
2022-08-12T21:27:17.235Z,26.50
2022-08-12T21:30:43.214Z,26.40
2022-08-12T21:34:29.335Z,26.40
2022-08-12T21:37:54.632Z,26.30
2022-08-12T21:41:20.133Z,26.20
2022-08-12T21:45:47.692Z,26.10
2022-08-12T21:48:30.753Z,26.10
2022-08-12T21:51:56.446Z,26.00
2022-08-12T21:55:20.495Z,25.90
2022-08-12T21:58:45.607Z,25.80
2022-08-12T22:02:24.776Z,25.70
2022-08-12T22:06:13.775Z,25.70
2022-08-12T22:09:43.875Z,25.60
2022-08-12T22:13:09.039Z,25.50
2022-08-12T22:16:56.888Z,25.40
2022-08-12T22:20:21.992Z,25.30
2022-08-12T22:23:52.054Z,25.20
2022-08-12T22:27:32.380Z,25.10
2022-08-12T22:31:11.191Z,25.10
2022-08-12T22:34:40.537Z,25.00
2022-08-12T22:38:18.000Z,25.00
2022-08-12T22:42:01.208Z,24.90
2022-08-12T22:45:48.284Z,24.80
2022-08-12T22:49:19.871Z,24.70
2022-08-12T22:52:49.830Z,24.60
2022-08-12T22:56:14.431Z,24.50
2022-08-12T22:59:55.886Z,24.40
2022-08-12T23:03:48.150Z,24.40
2022-08-12T23:07:07.201Z,24.30
2022-08-12T23:10:32.214Z,24.30
2022-08-12T23:14:01.628Z,24.20
2022-08-12T23:17:41.275Z,24.20
2022-08-12T23:21:05.381Z,24.10
2022-08-12T23:24:38.391Z,24.10
2022-08-12T23:28:30.162Z,24.10
2022-08-12T23:32:02.991Z,24.00
2022-08-12T23:35:45.771Z,24.00
2022-08-12T23:40:15.376Z,24.00
2022-08-12T23:42:57.570Z,23.90
2022-08-12T23:46:25.784Z,23.90
2022-08-12T23:49:58.378Z,23.90
2022-08-12T23:53:32.360Z,23.80
2022-08-12T23:56:57.241Z,23.80
